Time;durP1;ratioP1;P1;durP2;ratioP2;P2;SDS_P1;SDS_P2;PMS_P1;PMS_P2;Temp;Humidity;BMP_temperature;BMP_pressure;BME280_temperature;BME280_humidity;BME280_pressure;Samples;Min_cycle;Max_cycle;Signal;HPM_P1;HPM_P2
2021/09/08 00:00:10;;;;;;;;;;;;;;;22.64;70.00;100246.81;5046198;28;19952;-61
2021/09/08 00:02:38;;;;;;;;;;;;;;;22.47;70.80;100242.34;5049391;28;19982;-65
2021/09/08 00:05:06;;;;;;;;;;;;;;;22.43;70.43;100245.09;5046225;28;20418;-65
2021/09/08 00:07:33;;;;;;;;;;;;;;;22.48;70.48;100239.09;5045152;28;19921;-65
2021/09/08 00:10:00;;;;;;;;;;;;;;;22.62;69.72;100246.34;5040861;28;20011;-65
2021/09/08 00:12:26;;;;;;;;;;;;;;;22.59;70.07;100241.38;5041424;28;19982;-66
2021/09/08 00:14:53;;;;;;;;;;;;;;;22.65;69.87;100240.75;5042737;28;20020;-63
2021/09/08 00:17:20;;;;;;;;;;;;;;;22.65;69.85;100239.91;5041636;28;20435;-64
2021/09/08 00:19:46;;;;;;;;;;;;;;;22.64;69.59;100233.41;5045247;28;20023;-63
2021/09/08 00:22:13;;;;;;;;;;;;;;;22.68;69.77;100230.63;5046006;28;20005;-63
2021/09/08 00:24:40;;;;;;;;;;;;;;;22.67;69.58;100229.00;5050567;28;19948;-63
2021/09/08 00:27:07;;;;;;;;;;;;;;;22.57;70.10;100229.56;5050609;28;19927;-63
2021/09/08 00:29:34;;;;;;;;;;;;;;;22.64;69.59;100226.88;5044266;28;20027;-63
2021/09/08 00:32:02;;;;;;;;;;;;;;;22.60;69.64;100226.81;5036393;28;19921;-63
2021/09/08 00:34:29;;;;;;;;;;;;;;;22.55;69.87;100231.94;5033167;28;19952;-64
2021/09/08 00:36:55;;;;;;;;;;;;;;;22.62;69.57;100224.41;5033094;28;20044;-64
2021/09/08 00:39:22;;;;;;;;;;;;;;;22.70;69.44;100225.38;5047332;28;20011;-64
2021/09/08 00:41:48;;;;;;;;;;;;;;;22.68;69.60;100222.09;5038049;28;19929;-67
2021/09/08 00:44:15;;;;;;;;;;;;;;;22.54;70.15;100219.75;5038802;28;19991;-67
2021/09/08 00:46:43;;;;;;;;;;;;;;;22.44;70.31;100223.97;5037121;28;19943;-61
2021/09/08 00:49:10;;;;;;;;;;;;;;;22.33;70.85;100217.19;5040078;28;19960;-62
2021/09/08 00:51:37;;;;;;;;;;;;;;;22.29;70.78;100204.91;5033771;28;19933;-61
2021/09/08 00:54:05;;;;;;;;;;;;;;;22.15;71.51;100215.91;5031495;28;19921;-65
2021/09/08 00:56:32;;;;;;;;;;;;;;;22.14;71.72;100220.75;5035858;28;20004;-62
2021/09/08 00:58:59;;;;;;;;;;;;;;;22.11;71.62;100220.66;5041751;28;20011;-62
2021/09/08 01:01:26;;;;;;;;;;;;;;;22.05;72.24;100225.81;5043020;28;20015;-68
2021/09/08 01:03:53;;;;;;;;;;;;;;;22.09;71.82;100211.69;5047178;28;19925;-61
2021/09/08 01:06:20;;;;;;;;;;;;;;;22.10;71.79;100207.63;5041008;28;20007;-61
2021/09/08 01:08:47;;;;;;;;;;;;;;;22.21;71.42;100206.72;5044422;28;20020;-60
2021/09/08 01:11:14;;;;;;;;;;;;;;;22.20;71.88;100195.75;5046997;28;19972;-61
2021/09/08 01:13:40;;;;;;;;;;;;;;;22.21;71.76;100200.22;5043495;28;20028;-62
2021/09/08 01:16:07;;;;;;;;;;;;;;;22.23;72.05;100204.34;5041343;28;20369;-62
2021/09/08 01:18:36;;;;;;;;;;;;;;;22.37;71.59;100209.56;5039822;28;20365;-64
2021/09/08 01:21:03;;;;;;;;;;;;;;;22.48;71.52;100204.97;5050772;28;20007;-61
2021/09/08 01:23:31;;;;;;;;;;;;;;;22.47;71.31;100200.47;5047018;28;20369;-63
2021/09/08 01:26:04;;;;;;;;;;;;;;;22.52;71.46;100207.06;5032897;28;20016;-62
2021/09/08 01:28:31;;;;;;;;;;;;;;;22.62;71.21;100195.13;5039687;28;20338;-63
2021/09/08 01:30:58;;;;;;;;;;;;;;;22.56;71.19;100193.75;5044330;28;20011;-62
2021/09/08 01:33:25;;;;;;;;;;;;;;;22.57;70.93;100189.72;5050155;28;20028;-62
2021/09/08 01:35:52;;;;;;;;;;;;;;;22.55;70.90;100200.66;5037856;28;19921;-62
2021/09/08 01:38:19;;;;;;;;;;;;;;;22.50;71.17;100192.41;5068005;28;20439;-62
2021/09/08 01:40:46;;;;;;;;;;;;;;;22.53;71.21;100195.34;5039580;28;20007;-61
2021/09/08 01:43:12;;;;;;;;;;;;;;;22.67;70.55;100192.81;5036261;28;20007;-64
2021/09/08 01:45:41;;;;;;;;;;;;;;;22.63;70.72;100196.75;5043850;28;20007;-63
2021/09/08 01:48:08;;;;;;;;;;;;;;;22.56;70.91;100180.34;5040081;28;20490;-60
2021/09/08 01:50:35;;;;;;;;;;;;;;;22.55;70.92;100177.88;5030693;28;20024;-64
2021/09/08 01:53:02;;;;;;;;;;;;;;;22.51;70.86;100177.78;5035298;28;20321;-60
2021/09/08 01:55:28;;;;;;;;;;;;;;;22.41;71.51;100189.75;5049453;28;20020;-60
2021/09/08 01:57:55;;;;;;;;;;;;;;;22.33;71.62;100188.75;5042029;28;20343;-59
2021/09/08 02:00:22;;;;;;;;;;;;;;;22.26;71.87;100182.03;5043909;28;20361;-59
2021/09/08 02:02:48;;;;;;;;;;;;;;;22.22;72.00;100190.50;5046397;28;19963;-60
2021/09/08 02:05:16;;;;;;;;;;;;;;;22.22;72.09;100185.66;5065799;28;20385;-60
2021/09/08 02:07:43;;;;;;;;;;;;;;;22.32;71.30;100191.94;5037700;28;20007;-60
2021/09/08 02:10:10;;;;;;;;;;;;;;;22.27;71.64;100187.38;5045290;28;19986;-61
2021/09/08 02:12:37;;;;;;;;;;;;;;;22.38;71.13;100181.94;5039010;28;19964;-60
2021/09/08 02:15:04;;;;;;;;;;;;;;;22.30;71.34;100180.97;5031183;28;20507;-60
2021/09/08 02:17:32;;;;;;;;;;;;;;;22.39;71.37;100186.44;5032168;28;19921;-59
2021/09/08 02:19:58;;;;;;;;;;;;;;;22.23;71.72;100183.63;5046442;28;20399;-59
2021/09/08 02:22:25;;;;;;;;;;;;;;;22.21;71.85;100180.31;5043257;28;20294;-61
2021/09/08 02:24:52;;;;;;;;;;;;;;;22.18;71.99;100175.34;5034710;28;20317;-65
2021/09/08 02:27:19;;;;;;;;;;;;;;;22.19;71.87;100180.69;5036080;28;20416;-68
2021/09/08 02:29:45;;;;;;;;;;;;;;;22.22;71.63;100179.97;5040670;28;19925;-65
2021/09/08 02:32:12;;;;;;;;;;;;;;;22.20;72.01;100172.97;5038571;28;19921;-68
2021/09/08 02:34:39;;;;;;;;;;;;;;;22.05;72.38;100174.63;5036218;28;20407;-68
2021/09/08 02:37:05;;;;;;;;;;;;;;;22.16;71.80;100177.75;5043371;28;19975;-68
2021/09/08 02:39:34;;;;;;;;;;;;;;;22.18;72.12;100170.50;5039891;28;20426;-63
2021/09/08 02:42:01;;;;;;;;;;;;;;;22.21;71.70;100172.59;5043754;28;20008;-62
2021/09/08 02:44:27;;;;;;;;;;;;;;;22.23;71.85;100167.38;5030092;28;19957;-63
2021/09/08 02:46:54;;;;;;;;;;;;;;;22.20;71.68;100172.97;5033343;28;19960;-66
2021/09/08 02:49:21;;;;;;;;;;;;;;;22.32;71.34;100170.00;5033776;28;20015;-66
2021/09/08 02:51:47;;;;;;;;;;;;;;;22.34;71.50;100166.81;5036836;28;19960;-61
2021/09/08 02:54:14;;;;;;;;;;;;;;;22.19;71.75;100165.66;5039692;28;20056;-61
2021/09/08 02:56:41;;;;;;;;;;;;;;;22.04;72.45;100186.34;5033403;28;20008;-61
2021/09/08 02:59:07;;;;;;;;;;;;;;;22.06;72.43;100167.75;5037884;28;19920;-61
2021/09/08 03:01:34;;;;;;;;;;;;;;;21.98;72.62;100168.72;5032888;28;20401;-62
2021/09/08 03:04:01;;;;;;;;;;;;;;;21.98;72.59;100163.91;5039960;28;20305;-61
2021/09/08 03:06:28;;;;;;;;;;;;;;;21.93;72.74;100163.34;5037732;28;20015;-61
2021/09/08 03:08:56;;;;;;;;;;;;;;;21.91;72.85;100165.72;5037615;28;19967;-61
2021/09/08 03:11:22;;;;;;;;;;;;;;;22.05;72.60;100166.09;5039129;28;20005;-65
2021/09/08 03:13:50;;;;;;;;;;;;;;;22.14;72.33;100171.56;5037873;28;20258;-63
2021/09/08 03:16:17;;;;;;;;;;;;;;;22.27;72.06;100167.47;5043163;28;19928;-62
2021/09/08 03:18:44;;;;;;;;;;;;;;;22.25;72.02;100164.16;5042300;28;20332;-60
2021/09/08 03:21:11;;;;;;;;;;;;;;;22.31;71.91;100161.88;5046607;28;19921;-59
2021/09/08 03:23:37;;;;;;;;;;;;;;;22.41;71.45;100156.44;5042340;28;20443;-60
2021/09/08 03:26:04;;;;;;;;;;;;;;;22.48;71.49;100167.97;5042760;28;20004;-60
2021/09/08 03:28:31;;;;;;;;;;;;;;;22.50;71.42;100163.94;5043834;28;20071;-61
2021/09/08 03:30:57;;;;;;;;;;;;;;;22.43;71.62;100161.75;5038779;28;20012;-60
2021/09/08 03:33:24;;;;;;;;;;;;;;;22.53;71.20;100166.03;5036255;28;19921;-62
2021/09/08 03:35:51;;;;;;;;;;;;;;;22.50;71.10;100163.94;5044565;28;19921;-59
2021/09/08 03:38:17;;;;;;;;;;;;;;;22.51;71.29;100159.91;5042227;28;20326;-59
2021/09/08 03:40:44;;;;;;;;;;;;;;;22.39;71.79;100157.97;5045466;28;19972;-59
2021/09/08 03:43:11;;;;;;;;;;;;;;;22.41;71.39;100167.81;5044276;28;20066;-59
2021/09/08 03:45:37;;;;;;;;;;;;;;;22.40;71.51;100163.31;5049919;28;19960;-59
2021/09/08 03:48:04;;;;;;;;;;;;;;;22.41;71.43;100161.28;5038830;28;20001;-59
2021/09/08 03:50:31;;;;;;;;;;;;;;;22.34;71.64;100158.28;5043597;28;19927;-59
2021/09/08 03:52:58;;;;;;;;;;;;;;;22.28;71.62;100154.88;5043174;28;20011;-61
2021/09/08 03:55:24;;;;;;;;;;;;;;;22.27;71.86;100161.78;5043103;28;19967;-60
2021/09/08 03:57:51;;;;;;;;;;;;;;;22.41;71.55;100155.59;5045476;28;20359;-60
2021/09/08 04:00:18;;;;;;;;;;;;;;;22.49;71.17;100157.41;5039496;28;20016;-61
2021/09/08 04:02:44;;;;;;;;;;;;;;;22.56;70.86;100151.06;5049736;28;19943;-60
2021/09/08 04:05:11;;;;;;;;;;;;;;;22.59;70.71;100156.00;5037371;28;19922;-60
2021/09/08 04:07:38;;;;;;;;;;;;;;;22.59;70.98;100148.28;5037945;28;20281;-61
2021/09/08 04:10:05;;;;;;;;;;;;;;;22.64;70.88;100158.59;5039906;28;20389;-64
2021/09/08 04:12:32;;;;;;;;;;;;;;;22.51;71.28;100151.38;5040699;28;19982;-62
2021/09/08 04:14:59;;;;;;;;;;;;;;;22.44;71.17;100155.69;5049089;28;19921;-62
2021/09/08 04:17:25;;;;;;;;;;;;;;;22.38;71.33;100154.31;5039710;28;19964;-61
2021/09/08 04:19:52;;;;;;;;;;;;;;;22.38;71.40;100154.31;5041197;28;20019;-62
2021/09/08 04:22:18;;;;;;;;;;;;;;;22.43;71.48;100161.75;5040932;28;19921;-60
2021/09/08 04:24:45;;;;;;;;;;;;;;;22.44;71.16;100155.69;5043004;28;19951;-60
2021/09/08 04:27:12;;;;;;;;;;;;;;;22.44;71.16;100152.03;5075757;28;19971;-62
2021/09/08 04:29:38;;;;;;;;;;;;;;;22.41;71.69;100150.72;5046013;28;20003;-60
2021/09/08 04:32:05;;;;;;;;;;;;;;;22.40;71.13;100149.09;5044546;28;19959;-60
2021/09/08 04:34:33;;;;;;;;;;;;;;;22.40;71.30;100151.94;5040392;28;20453;-60
2021/09/08 04:36:59;;;;;;;;;;;;;;;22.48;71.05;100145.22;5042584;28;19966;-65
2021/09/08 04:39:26;;;;;;;;;;;;;;;22.60;70.65;100143.44;5035250;28;20411;-66
2021/09/08 04:41:53;;;;;;;;;;;;;;;22.57;71.20;100136.47;5041368;28;20055;-61
2021/09/08 04:44:19;;;;;;;;;;;;;;;22.57;70.71;100135.66;5034407;28;20015;-61
2021/09/08 04:46:46;;;;;;;;;;;;;;;22.50;71.43;100139.16;5037340;28;20024;-61
2021/09/08 04:49:13;;;;;;;;;;;;;;;22.47;71.31;100129.34;5043096;28;19927;-61
2021/09/08 04:51:39;;;;;;;;;;;;;;;22.53;70.91;100129.88;5037871;28;20353;-60
2021/09/08 04:54:06;;;;;;;;;;;;;;;22.56;71.14;100134.00;5037082;28;20012;-60
2021/09/08 04:56:33;;;;;;;;;;;;;;;22.49;71.27;100131.81;5038651;28;20004;-59
2021/09/08 04:58:59;;;;;;;;;;;;;;;22.35;71.80;100129.44;5040787;28;20012;-59
2021/09/08 05:01:26;;;;;;;;;;;;;;;22.27;71.92;100133.34;5040052;28;19968;-60
2021/09/08 05:03:53;;;;;;;;;;;;;;;22.23;72.03;100144.63;5043009;28;19927;-60
2021/09/08 05:06:20;;;;;;;;;;;;;;;22.29;71.79;100139.50;5048788;28;20004;-63
2021/09/08 05:08:46;;;;;;;;;;;;;;;22.28;71.74;100140.66;5039632;28;19929;-64
2021/09/08 05:11:13;;;;;;;;;;;;;;;22.34;71.72;100142.03;5040921;28;19968;-65
2021/09/08 05:13:40;;;;;;;;;;;;;;;22.33;71.76;100142.41;5038717;28;20467;-65
2021/09/08 05:16:10;;;;;;;;;;;;;;;22.20;72.22;100139.69;5040372;28;20298;-65
2021/09/08 05:18:36;;;;;;;;;;;;;;;22.26;71.57;100148.75;5040628;28;19925;-65
2021/09/08 05:21:03;;;;;;;;;;;;;;;22.30;71.51;100148.84;5038112;28;19971;-63
2021/09/08 05:23:30;;;;;;;;;;;;;;;22.29;71.84;100153.72;5031775;28;20705;-65
2021/09/08 05:25:56;;;;;;;;;;;;;;;22.26;71.79;100148.75;5039581;28;20007;-63
2021/09/08 05:28:23;;;;;;;;;;;;;;;22.30;71.60;100155.34;5033149;28;20020;-59
2021/09/08 05:30:50;;;;;;;;;;;;;;;22.36;71.32;100159.56;5035903;28;19963;-60
2021/09/08 05:33:16;;;;;;;;;;;;;;;22.42;71.02;100160.09;5045531;28;20396;-64
2021/09/08 05:35:43;;;;;;;;;;;;;;;22.32;71.20;100164.31;5033419;28;19964;-61
2021/09/08 05:38:10;;;;;;;;;;;;;;;22.34;71.26;100164.78;5037291;28;20021;-65
2021/09/08 05:40:36;;;;;;;;;;;;;;;22.37;71.09;100155.53;5040762;28;19952;-62
2021/09/08 05:43:03;;;;;;;;;;;;;;;22.34;70.90;100156.25;5044394;28;19954;-60
2021/09/08 05:45:30;;;;;;;;;;;;;;;22.36;70.91;100156.72;5037248;28;20367;-61
2021/09/08 05:47:57;;;;;;;;;;;;;;;22.32;70.69;100158.63;5039589;28;20339;-65
2021/09/08 05:50:23;;;;;;;;;;;;;;;22.37;70.60;100152.69;5045052;28;19971;-66
2021/09/08 05:52:50;;;;;;;;;;;;;;;22.41;70.39;100161.28;5039263;28;20000;-66
2021/09/08 05:55:17;;;;;;;;;;;;;;;22.45;70.65;100163.03;5036668;28;20007;-66
2021/09/08 05:57:43;;;;;;;;;;;;;;;22.41;70.48;100162.13;5034171;28;19972;-65
2021/09/08 06:00:10;;;;;;;;;;;;;;;22.35;70.29;100174.97;5039710;28;19968;-65
2021/09/08 06:02:37;;;;;;;;;;;;;;;22.34;70.11;100170.47;5039628;28;19952;-66
2021/09/08 06:05:05;;;;;;;;;;;;;;;22.41;70.20;100167.81;5036612;28;19925;-65
2021/09/08 06:07:33;;;;;;;;;;;;;;;22.33;70.22;100168.84;5036625;28;19925;-64
2021/09/08 06:10:00;;;;;;;;;;;;;;;22.29;70.23;100167.94;5032549;28;20301;-66
2021/09/08 06:12:26;;;;;;;;;;;;;;;22.35;70.06;100168.47;5039055;28;20375;-69
2021/09/08 06:14:53;;;;;;;;;;;;;;;22.34;70.19;100169.66;5034805;28;19927;-72
2021/09/08 06:17:20;;;;;;;;;;;;;;;22.28;70.04;100162.59;5033888;28;19920;-68
2021/09/08 06:19:46;;;;;;;;;;;;;;;22.28;70.27;100169.09;5037029;28;19987;-68
2021/09/08 06:22:13;;;;;;;;;;;;;;;22.27;70.36;100173.16;5038098;28;20328;-68
2021/09/08 06:24:40;;;;;;;;;;;;;;;22.30;70.16;100169.56;5037199;28;20040;-68
2021/09/08 06:27:06;;;;;;;;;;;;;;;22.21;70.30;100178.28;5030634;28;19921;-67
2021/09/08 06:29:33;;;;;;;;;;;;;;;22.26;70.40;100176.34;5037082;28;20033;-68
2021/09/08 06:32:00;;;;;;;;;;;;;;;22.25;70.24;100178.38;5039721;28;19967;-68
2021/09/08 06:34:27;;;;;;;;;;;;;;;22.27;70.30;100181.69;5036155;28;19928;-68
2021/09/08 06:36:54;;;;;;;;;;;;;;;22.16;70.60;100183.47;5036910;28;19957;-68
2021/09/08 06:39:21;;;;;;;;;;;;;;;22.18;70.65;100181.03;5035245;28;20013;-68
2021/09/08 06:41:48;;;;;;;;;;;;;;;22.15;70.94;100182.63;5027955;28;19972;-67
2021/09/08 06:44:15;;;;;;;;;;;;;;;22.27;70.43;100184.53;5040278;28;20007;-68
2021/09/08 06:46:42;;;;;;;;;;;;;;;22.28;70.71;100182.50;5033123;28;20043;-68
2021/09/08 06:49:09;;;;;;;;;;;;;;;22.28;70.75;100188.19;5039833;28;20011;-68
2021/09/08 06:51:36;;;;;;;;;;;;;;;22.37;70.38;100183.97;5039587;28;19964;-67
2021/09/08 06:54:03;;;;;;;;;;;;;;;22.30;70.82;100180.97;5045691;28;20045;-69
2021/09/08 06:56:29;;;;;;;;;;;;;;;22.36;70.51;100175.78;5045061;28;19964;-69
2021/09/08 06:58:56;;;;;;;;;;;;;;;22.45;70.22;100184.97;5043126;28;19967;-69
2021/09/08 07:01:23;;;;;;;;;;;;;;;22.51;70.04;100185.50;5043372;28;20420;-67
2021/09/08 07:03:50;;;;;;;;;;;;;;;22.42;70.69;100180.81;5045350;28;20007;-69
2021/09/08 07:06:20;;;;;;;;;;;;;;;22.39;70.68;100186.44;5045490;28;19921;-72
2021/09/08 07:08:47;;;;;;;;;;;;;;;22.42;71.09;100186.53;5045172;28;19929;-72
2021/09/08 07:11:13;;;;;;;;;;;;;;;22.40;70.86;100186.09;5042645;28;20453;-67
2021/09/08 07:13:40;;;;;;;;;;;;;;;22.22;71.67;100177.13;5036934;28;20015;-66
2021/09/08 07:16:07;;;;;;;;;;;;;;;22.24;71.39;100174.72;5039683;28;20373;-67
2021/09/08 07:18:34;;;;;;;;;;;;;;;22.31;71.37;100184.63;5042740;28;19921;-66
2021/09/08 07:21:01;;;;;;;;;;;;;;;22.38;70.99;100188.47;5039297;28;19921;-66
2021/09/08 07:23:28;;;;;;;;;;;;;;;22.42;70.70;100186.53;5045118;28;20004;-66
2021/09/08 07:25:55;;;;;;;;;;;;;;;22.45;70.92;100190.66;5035549;28;19975;-66
2021/09/08 07:28:22;;;;;;;;;;;;;;;22.45;70.65;100197.16;5035787;28;19968;-66
2021/09/08 07:30:53;;;;;;;;;;;;;;;22.40;71.26;100194.63;5035678;28;20019;-66
2021/09/08 07:33:21;;;;;;;;;;;;;;;22.47;70.98;100203.31;5036409;28;19928;-65
2021/09/08 07:35:48;;;;;;;;;;;;;;;22.55;70.62;100201.47;5035667;28;19967;-65
2021/09/08 07:38:15;;;;;;;;;;;;;;;22.68;70.37;100216.41;5034537;28;20019;-66
2021/09/08 07:40:41;;;;;;;;;;;;;;;22.70;70.28;100208.31;5042245;28;19974;-66
2021/09/08 07:43:09;;;;;;;;;;;;;;;22.62;70.85;100201.63;5052334;28;20012;-66
2021/09/08 07:45:35;;;;;;;;;;;;;;;22.67;70.46;100200.53;5035485;28;20008;-66
2021/09/08 07:48:02;;;;;;;;;;;;;;;22.69;70.52;100209.50;5036043;28;20016;-66
2021/09/08 07:50:29;;;;;;;;;;;;;;;22.77;70.33;100208.50;5049796;28;20379;-66
2021/09/08 07:52:56;;;;;;;;;;;;;;;22.64;70.58;100209.81;5035799;28;20000;-66
2021/09/08 07:55:22;;;;;;;;;;;;;;;22.78;69.97;100207.28;5035291;28;20006;-66
2021/09/08 07:57:49;;;;;;;;;;;;;;;22.87;69.94;100205.06;5035716;28;19975;-66
2021/09/08 08:00:16;;;;;;;;;;;;;;;22.92;69.79;100196.25;5035020;28;20535;-66
2021/09/08 08:02:50;;;;;;;;;;;;;;;22.69;70.22;100201.78;5036039;28;19983;-66
2021/09/08 08:05:18;;;;;;;;;;;;;;;22.60;70.11;100208.91;5041329;28;19935;-66
2021/09/08 08:07:46;;;;;;;;;;;;;;;22.55;70.47;100218.53;5035576;28;19959;-66
2021/09/08 08:10:14;;;;;;;;;;;;;;;22.50;70.72;100223.72;5038967;28;19921;-66
2021/09/08 08:12:41;;;;;;;;;;;;;;;22.48;70.60;100218.38;5045617;28;20361;-66
2021/09/08 08:15:08;;;;;;;;;;;;;;;22.58;70.17;100217.81;5055097;28;19921;-66
2021/09/08 08:17:35;;;;;;;;;;;;;;;22.71;69.88;100225.03;5043137;28;20036;-67
2021/09/08 08:20:08;;;;;;;;;;;;;;;22.69;69.98;100221.72;5034821;28;19931;-67
2021/09/08 08:22:37;;;;;;;;;;;;;;;22.70;69.97;100222.53;5037954;28;20434;-66
2021/09/08 08:25:05;;;;;;;;;;;;;;;22.80;70.00;100227.66;5047681;28;19928;-67
2021/09/08 08:27:33;;;;;;;;;;;;;;;22.88;69.83;100208.75;5034833;28;19921;-66
2021/09/08 08:30:00;;;;;;;;;;;;;;;22.90;69.76;100214.88;5054450;28;19927;-67
2021/09/08 08:32:27;;;;;;;;;;;;;;;22.92;69.46;100227.56;5053494;28;20375;-67
2021/09/08 08:34:53;;;;;;;;;;;;;;;23.01;69.54;100217.97;5046258;28;20008;-66
2021/09/08 08:37:20;;;;;;;;;;;;;;;22.91;69.30;100217.34;5054624;28;19960;-66
2021/09/08 08:39:47;;;;;;;;;;;;;;;22.82;69.71;100222.44;5049554;28;20347;-66
2021/09/08 08:42:21;;;;;;;;;;;;;;;22.81;69.53;100237.88;5048705;28;20008;-66
2021/09/08 08:44:49;;;;;;;;;;;;;;;22.69;69.65;100235.94;5034076;28;20015;-66
2021/09/08 08:47:16;;;;;;;;;;;;;;;22.74;69.53;100223.47;5034263;28;19976;-66
2021/09/08 08:49:44;;;;;;;;;;;;;;;23.05;69.23;100228.28;5052076;28;20466;-68
2021/09/08 08:52:11;;;;;;;;;;;;;;;22.99;69.05;100226.91;5048171;28;20007;-66
2021/09/08 08:54:38;;;;;;;;;;;;;;;23.16;69.28;100237.03;5034849;28;19921;-66
2021/09/08 08:57:09;;;;;;;;;;;;;;;23.26;69.00;100222.22;5034994;28;20347;-66
2021/09/08 08:59:36;;;;;;;;;;;;;;;23.22;69.15;100227.00;5033342;28;19925;-65
2021/09/08 09:02:20;;;;;;;;;;;;;;;23.18;69.19;100228.97;5046394;28;20357;-66
2021/09/08 09:04:48;;;;;;;;;;;;;;;23.16;68.97;100228.50;5038838;28;19921;-66
2021/09/08 09:07:21;;;;;;;;;;;;;;;23.14;68.89;100243.09;5053832;28;19999;-66
2021/09/08 09:09:58;;;;;;;;;;;;;;;22.71;69.86;100249.81;5037432;28;19968;-68
2021/09/08 09:12:33;;;;;;;;;;;;;;;22.27;70.85;100267.03;5033335;28;19921;-68
2021/09/08 09:15:02;;;;;;;;;;;;;;;21.85;71.84;100258.16;5080901;28;20261;-68
2021/09/08 09:17:31;;;;;;;;;;;;;;;21.64;72.69;100267.75;5038024;28;19921;-66
2021/09/08 09:19:57;;;;;;;;;;;;;;;21.57;73.11;100272.38;5037448;28;20332;-66
2021/09/08 09:22:25;;;;;;;;;;;;;;;21.66;73.59;100273.03;5053925;28;19920;-66
2021/09/08 09:24:52;;;;;;;;;;;;;;;21.89;74.05;100279.81;5038413;28;19967;-67
2021/09/08 09:27:19;;;;;;;;;;;;;;;22.23;73.09;100275.47;5034207;28;20031;-66
2021/09/08 09:29:46;;;;;;;;;;;;;;;22.55;71.83;100280.31;5016150;28;19972;-66
2021/09/08 09:32:13;;;;;;;;;;;;;;;22.65;71.36;100279.75;5032918;28;19967;-66
2021/09/08 09:34:40;;;;;;;;;;;;;;;22.73;71.28;100275.06;5033621;28;19964;-67
2021/09/08 09:37:07;;;;;;;;;;;;;;;22.63;71.41;100293.53;5033911;28;19967;-66
2021/09/08 09:39:36;;;;;;;;;;;;;;;22.38;72.06;100293.72;5040588;28;19947;-66
2021/09/08 09:42:08;;;;;;;;;;;;;;;22.09;72.61;100291.31;5041098;28;20008;-67
2021/09/08 09:44:35;;;;;;;;;;;;;;;22.00;72.66;100297.97;5033183;28;19972;-65
2021/09/08 09:47:02;;;;;;;;;;;;;;;21.93;72.75;100299.78;5039287;28;20003;-65
2021/09/08 09:49:33;;;;;;;;;;;;;;;21.68;73.98;100304.78;5032148;28;20004;-66
2021/09/08 09:52:03;;;;;;;;;;;;;;;21.81;73.40;100302.69;5030992;28;20389;-63
2021/09/08 09:54:30;;;;;;;;;;;;;;;21.68;73.95;100313.31;5032124;28;20340;-66
2021/09/08 09:56:56;;;;;;;;;;;;;;;21.49;74.12;100325.31;5036410;28;19929;-65
2021/09/08 09:59:23;;;;;;;;;;;;;;;21.39;74.39;100332.31;5032704;28;20020;-67
2021/09/08 10:01:50;;;;;;;;;;;;;;;21.21;74.45;100330.94;5032812;28;20325;-68
2021/09/08 10:04:17;;;;;;;;;;;;;;;21.19;74.49;100338.97;5032544;28;19960;-69
2021/09/08 10:06:44;;;;;;;;;;;;;;;21.17;74.47;100338.50;5032210;28;20365;-68
2021/09/08 10:09:14;;;;;;;;;;;;;;;21.22;74.26;100344.75;5039520;28;19943;-68
2021/09/08 10:11:44;;;;;;;;;;;;;;;21.16;74.48;100340.53;5048180;28;19921;-69
2021/09/08 10:14:16;;;;;;;;;;;;;;;21.16;74.35;100345.34;5049318;28;20106;-68
2021/09/08 10:16:45;;;;;;;;;;;;;;;21.16;74.63;100342.53;5039738;28;19956;-69
2021/09/08 10:19:15;;;;;;;;;;;;;;;21.19;74.63;100344.66;5039827;28;20078;-68
2021/09/08 10:21:43;;;;;;;;;;;;;;;21.16;74.88;100348.19;5033414;28;20011;-69
2021/09/08 10:24:10;;;;;;;;;;;;;;;21.04;74.82;100343.38;5033446;28;19921;-69
2021/09/08 10:26:37;;;;;;;;;;;;;;;20.99;74.52;100352.97;5032950;28;20016;-68
2021/09/08 10:29:08;;;;;;;;;;;;;;;20.99;74.68;100352.97;5052518;28;20015;-68
2021/09/08 10:31:38;;;;;;;;;;;;;;;20.83;75.73;100344.34;5039720;28;19964;-68
2021/09/08 10:34:06;;;;;;;;;;;;;;;20.86;75.57;100354.16;5043112;28;19964;-69
2021/09/08 10:36:34;;;;;;;;;;;;;;;20.83;76.10;100354.88;5043485;28;19968;-68
2021/09/08 10:39:05;;;;;;;;;;;;;;;20.85;76.21;100352.47;5048137;28;20366;-68
2021/09/08 10:41:40;;;;;;;;;;;;;;;20.94;76.41;100356.03;5049154;28;19952;-68
2021/09/08 10:44:07;;;;;;;;;;;;;;;20.93;76.44;100360.06;5032494;28;20420;-68
2021/09/08 10:46:49;;;;;;;;;;;;;;;20.99;76.52;100369.16;5040771;28;20019;-68
2021/09/08 10:49:34;;;;;;;;;;;;;;;21.21;76.06;100359.34;5073930;28;19979;-68
2021/09/08 10:52:01;;;;;;;;;;;;;;;21.55;75.60;100362.84;5032669;28;20004;-68
2021/09/08 10:54:28;;;;;;;;;;;;;;;21.87;75.02;100363.78;5031853;28;20361;-67
2021/09/08 10:56:55;;;;;;;;;;;;;;;22.14;75.27;100364.97;5030942;28;20015;-68
2021/09/08 10:59:23;;;;;;;;;;;;;;;22.53;74.96;100368.06;5032024;28;19964;-67
2021/09/08 11:01:53;;;;;;;;;;;;;;;22.98;74.37;100355.44;5031370;28;20004;-67
2021/09/08 11:04:20;;;;;;;;;;;;;;;23.01;74.39;100351.81;5031743;28;19928;-67
2021/09/08 11:06:48;;;;;;;;;;;;;;;23.23;74.49;100351.16;5037830;28;20332;-66
2021/09/08 11:09:16;;;;;;;;;;;;;;;23.73;73.75;100360.84;5032228;28;19975;-67
2021/09/08 11:11:49;;;;;;;;;;;;;;;24.03;73.97;100351.69;5033293;28;19987;-67
2021/09/08 11:14:16;;;;;;;;;;;;;;;24.18;73.34;100347.09;5035790;28;22636;-66
2021/09/08 11:16:43;;;;;;;;;;;;;;;24.35;74.00;100349.47;5040831;28;19921;-66
2021/09/08 11:19:13;;;;;;;;;;;;;;;25.00;74.27;100352.25;5033085;28;20376;-67
2021/09/08 11:21:40;;;;;;;;;;;;;;;25.46;73.13;100346.44;5032699;28;19967;-66
2021/09/08 11:24:08;;;;;;;;;;;;;;;25.73;72.57;100360.69;5041388;28;20003;-66
2021/09/08 11:26:37;;;;;;;;;;;;;;;25.93;72.51;100347.91;5031940;28;20011;-66
2021/09/08 11:29:06;;;;;;;;;;;;;;;26.36;72.05;100347.53;5039103;28;19990;-67
2021/09/08 11:31:33;;;;;;;;;;;;;;;26.68;71.29;100340.13;5037017;28;20300;-67
2021/09/08 11:34:01;;;;;;;;;;;;;;;26.88;71.00;100339.88;5033728;28;19921;-66
2021/09/08 11:36:29;;;;;;;;;;;;;;;26.76;70.18;100337.31;5035595;28;20012;-66
2021/09/08 11:38:57;;;;;;;;;;;;;;;26.80;69.46;100343.91;5066291;28;20008;-66
2021/09/08 11:41:25;;;;;;;;;;;;;;;27.02;68.66;100342.88;5034563;28;20044;-67
2021/09/08 11:43:53;;;;;;;;;;;;;;;26.81;68.14;100342.69;5041255;28;19920;-67
2021/09/08 11:46:20;;;;;;;;;;;;;;;27.04;67.22;100337.53;5035576;28;20404;-67
2021/09/08 11:48:51;;;;;;;;;;;;;;;27.24;67.50;100335.25;5035693;28;20274;-66
2021/09/08 11:51:19;;;;;;;;;;;;;;;27.16;67.09;100343.00;5035265;28;20420;-67
2021/09/08 11:53:47;;;;;;;;;;;;;;;27.45;66.72;100336.59;5035770;28;19952;-67
2021/09/08 11:56:15;;;;;;;;;;;;;;;27.02;67.03;100330.59;5044457;28;19956;-65
2021/09/08 11:58:43;;;;;;;;;;;;;;;26.69;67.26;100335.22;5044223;28;20004;-65
2021/09/08 12:01:11;;;;;;;;;;;;;;;26.39;67.59;100338.16;5054390;28;20338;-65
2021/09/08 12:03:38;;;;;;;;;;;;;;;26.26;67.96;100331.06;5041389;28;19979;-66
2021/09/08 12:06:12;;;;;;;;;;;;;;;26.02;68.01;100336.16;5047298;28;20020;-66
2021/09/08 12:08:46;;;;;;;;;;;;;;;25.82;68.23;100337.56;5037266;28;20309;-66
2021/09/08 12:11:31;;;;;;;;;;;;;;;25.58;68.61;100333.94;5046963;28;19963;-66
2021/09/08 12:14:17;;;;;;;;;;;;;;;25.63;67.83;100335.63;5034736;28;20054;-66
2021/09/08 12:16:44;;;;;;;;;;;;;;;25.49;67.66;100334.22;5036085;28;20526;-65
2021/09/08 12:19:12;;;;;;;;;;;;;;;25.28;67.87;100333.94;5034835;28;20377;-64
2021/09/08 12:21:39;;;;;;;;;;;;;;;25.19;68.54;100330.50;5035550;28;20015;-66
2021/09/08 12:24:24;;;;;;;;;;;;;;;25.01;68.66;100330.22;5034662;28;20019;-66
2021/09/08 12:26:51;;;;;;;;;;;;;;;24.84;69.50;100337.28;5045404;28;20019;-66
2021/09/08 12:29:18;;;;;;;;;;;;;;;24.71;68.87;100333.81;5034939;28;19971;-66
2021/09/08 12:31:46;;;;;;;;;;;;;;;24.69;69.05;100336.22;5038425;28;20024;-67
2021/09/08 12:34:12;;;;;;;;;;;;;;;24.81;69.21;100343.75;5039709;28;19922;-66
2021/09/08 12:36:39;;;;;;;;;;;;;;;24.97;68.87;100335.06;5034352;28;20008;-66